sensor_id;sensor_type;location;lat;lon;timestamp;temperature;humidity
51655;DHT22;37732;53.106;7.030;2023-08-24T00:02:06;16.30;99.90
51655;DHT22;37732;53.106;7.030;2023-08-24T00:04:35;16.20;99.90
51655;DHT22;37732;53.106;7.030;2023-08-24T00:07:01;16.20;99.90
51655;DHT22;37732;53.106;7.030;2023-08-24T00:09:30;16.20;99.90
51655;DHT22;37732;53.106;7.030;2023-08-24T00:11:56;16.10;99.90
51655;DHT22;37732;53.106;7.030;2023-08-24T00:14:25;16.10;99.90
51655;DHT22;37732;53.106;7.030;2023-08-24T00:16:52;16.10;99.90
51655;DHT22;37732;53.106;7.030;2023-08-24T00:19:18;16.00;99.90
51655;DHT22;37732;53.106;7.030;2023-08-24T00:21:46;15.90;99.90
51655;DHT22;37732;53.106;7.030;2023-08-24T00:24:13;15.90;99.90
51655;DHT22;37732;53.106;7.030;2023-08-24T00:26:42;15.80;99.90
51655;DHT22;37732;53.106;7.030;2023-08-24T00:29:08;15.80;99.90
51655;DHT22;37732;53.106;7.030;2023-08-24T00:31:40;15.70;99.90
51655;DHT22;37732;53.106;7.030;2023-08-24T00:34:07;15.70;99.90
51655;DHT22;37732;53.106;7.030;2023-08-24T00:36:33;15.70;99.90
51655;DHT22;37732;53.106;7.030;2023-08-24T00:39:02;15.60;99.90
51655;DHT22;37732;53.106;7.030;2023-08-24T00:41:28;15.50;99.90
51655;DHT22;37732;53.106;7.030;2023-08-24T00:43:54;15.50;99.90
51655;DHT22;37732;53.106;7.030;2023-08-24T00:46:20;15.40;99.90
51655;DHT22;37732;53.106;7.030;2023-08-24T00:48:47;15.40;99.90
51655;DHT22;37732;53.106;7.030;2023-08-24T00:51:15;15.40;99.90
51655;DHT22;37732;53.106;7.030;2023-08-24T00:53:41;15.30;99.90
51655;DHT22;37732;53.106;7.030;2023-08-24T00:56:11;15.30;99.90
51655;DHT22;37732;53.106;7.030;2023-08-24T00:58:38;15.30;99.90
51655;DHT22;37732;53.106;7.030;2023-08-24T01:03:39;15.20;99.90
51655;DHT22;37732;53.106;7.030;2023-08-24T01:06:08;15.20;99.90
51655;DHT22;37732;53.106;7.030;2023-08-24T01:08:36;15.20;99.90
51655;DHT22;37732;53.106;7.030;2023-08-24T01:14:16;15.10;99.90
51655;DHT22;37732;53.106;7.030;2023-08-24T01:16:48;15.10;99.90
51655;DHT22;37732;53.106;7.030;2023-08-24T01:19:45;15.10;99.90
51655;DHT22;37732;53.106;7.030;2023-08-24T01:25:07;15.10;99.90
51655;DHT22;37732;53.106;7.030;2023-08-24T01:27:40;15.00;99.90
51655;DHT22;37732;53.106;7.030;2023-08-24T01:30:09;15.00;99.90
51655;DHT22;37732;53.106;7.030;2023-08-24T01:32:39;15.00;99.90
51655;DHT22;37732;53.106;7.030;2023-08-24T01:35:08;15.00;99.90
51655;DHT22;37732;53.106;7.030;2023-08-24T01:37:35;15.00;99.90
51655;DHT22;37732;53.106;7.030;2023-08-24T01:40:13;15.10;99.90
51655;DHT22;37732;53.106;7.030;2023-08-24T01:42:52;15.00;99.90
51655;DHT22;37732;53.106;7.030;2023-08-24T01:45:25;15.00;99.90
51655;DHT22;37732;53.106;7.030;2023-08-24T01:47:57;15.00;99.90
51655;DHT22;37732;53.106;7.030;2023-08-24T01:50:27;15.00;99.90
51655;DHT22;37732;53.106;7.030;2023-08-24T01:52:55;15.00;99.90
51655;DHT22;37732;53.106;7.030;2023-08-24T01:55:23;15.00;99.90
51655;DHT22;37732;53.106;7.030;2023-08-24T01:57:52;15.10;99.90
51655;DHT22;37732;53.106;7.030;2023-08-24T02:00:18;15.10;99.90
51655;DHT22;37732;53.106;7.030;2023-08-24T02:02:44;15.10;99.90
51655;DHT22;37732;53.106;7.030;2023-08-24T02:05:10;15.10;99.90
51655;DHT22;37732;53.106;7.030;2023-08-24T02:07:39;15.10;99.90
51655;DHT22;37732;53.106;7.030;2023-08-24T02:10:06;15.10;99.90
51655;DHT22;37732;53.106;7.030;2023-08-24T02:12:32;15.10;99.90
51655;DHT22;37732;53.106;7.030;2023-08-24T02:14:58;15.20;99.90
51655;DHT22;37732;53.106;7.030;2023-08-24T02:17:28;15.20;99.90
51655;DHT22;37732;53.106;7.030;2023-08-24T02:19:55;15.20;99.90
51655;DHT22;37732;53.106;7.030;2023-08-24T02:22:21;15.20;99.90
51655;DHT22;37732;53.106;7.030;2023-08-24T02:24:50;15.20;99.90
51655;DHT22;37732;53.106;7.030;2023-08-24T02:27:16;15.20;99.90
51655;DHT22;37732;53.106;7.030;2023-08-24T02:29:45;15.20;99.90
51655;DHT22;37732;53.106;7.030;2023-08-24T02:32:11;15.20;99.90
51655;DHT22;37732;53.106;7.030;2023-08-24T02:34:37;15.20;99.90
51655;DHT22;37732;53.106;7.030;2023-08-24T02:37:07;15.20;99.90
51655;DHT22;37732;53.106;7.030;2023-08-24T02:39:34;15.20;99.90
51655;DHT22;37732;53.106;7.030;2023-08-24T02:42:00;15.20;99.90
51655;DHT22;37732;53.106;7.030;2023-08-24T02:44:26;15.20;99.90
51655;DHT22;37732;53.106;7.030;2023-08-24T02:46:54;15.20;99.90
51655;DHT22;37732;53.106;7.030;2023-08-24T02:49:20;15.20;99.90
51655;DHT22;37732;53.106;7.030;2023-08-24T02:51:46;15.20;99.90
51655;DHT22;37732;53.106;7.030;2023-08-24T02:54:18;15.30;99.90
51655;DHT22;37732;53.106;7.030;2023-08-24T02:56:44;15.20;99.90
51655;DHT22;37732;53.106;7.030;2023-08-24T02:59:13;15.20;99.90
51655;DHT22;37732;53.106;7.030;2023-08-24T03:01:38;15.30;99.90
51655;DHT22;37732;53.106;7.030;2023-08-24T03:04:11;15.30;99.90
51655;DHT22;37732;53.106;7.030;2023-08-24T03:06:39;15.30;99.90
51655;DHT22;37732;53.106;7.030;2023-08-24T03:09:05;15.30;99.90
51655;DHT22;37732;53.106;7.030;2023-08-24T03:11:32;15.30;99.90
51655;DHT22;37732;53.106;7.030;2023-08-24T03:14:01;15.30;99.90
51655;DHT22;37732;53.106;7.030;2023-08-24T03:16:27;15.30;99.90
51655;DHT22;37732;53.106;7.030;2023-08-24T03:18:56;15.30;99.90
51655;DHT22;37732;53.106;7.030;2023-08-24T03:21:24;15.30;99.90
51655;DHT22;37732;53.106;7.030;2023-08-24T03:23:51;15.30;99.90
51655;DHT22;37732;53.106;7.030;2023-08-24T03:26:17;15.30;99.90
51655;DHT22;37732;53.106;7.030;2023-08-24T03:28:47;15.30;99.90
51655;DHT22;37732;53.106;7.030;2023-08-24T03:31:12;15.30;99.90
51655;DHT22;37732;53.106;7.030;2023-08-24T03:33:38;15.30;99.90
51655;DHT22;37732;53.106;7.030;2023-08-24T03:36:04;15.30;99.90
51655;DHT22;37732;53.106;7.030;2023-08-24T03:38:33;15.30;99.90
51655;DHT22;37732;53.106;7.030;2023-08-24T03:41:03;15.30;99.90
51655;DHT22;37732;53.106;7.030;2023-08-24T03:43:32;15.30;99.90
51655;DHT22;37732;53.106;7.030;2023-08-24T03:46:03;15.30;99.90
51655;DHT22;37732;53.106;7.030;2023-08-24T03:48:32;15.20;99.90
51655;DHT22;37732;53.106;7.030;2023-08-24T03:51:01;15.20;99.90
51655;DHT22;37732;53.106;7.030;2023-08-24T03:53:28;15.10;99.90
51655;DHT22;37732;53.106;7.030;2023-08-24T03:55:56;15.10;99.90
51655;DHT22;37732;53.106;7.030;2023-08-24T03:58:22;15.10;99.90
51655;DHT22;37732;53.106;7.030;2023-08-24T04:00:48;15.10;99.90
51655;DHT22;37732;53.106;7.030;2023-08-24T04:03:14;15.10;99.90
51655;DHT22;37732;53.106;7.030;2023-08-24T04:05:42;15.10;99.90
51655;DHT22;37732;53.106;7.030;2023-08-24T04:08:08;15.10;99.90
51655;DHT22;37732;53.106;7.030;2023-08-24T04:10:34;15.10;99.90
51655;DHT22;37732;53.106;7.030;2023-08-24T04:13:00;15.10;99.90
51655;DHT22;37732;53.106;7.030;2023-08-24T04:15:29;15.10;99.90
51655;DHT22;37732;53.106;7.030;2023-08-24T04:17:57;15.10;99.90
51655;DHT22;37732;53.106;7.030;2023-08-24T04:20:23;15.10;99.90
51655;DHT22;37732;53.106;7.030;2023-08-24T04:22:49;15.10;99.90
51655;DHT22;37732;53.106;7.030;2023-08-24T04:25:18;15.00;99.90
51655;DHT22;37732;53.106;7.030;2023-08-24T04:27:48;15.10;99.90
51655;DHT22;37732;53.106;7.030;2023-08-24T04:30:16;15.10;99.90
51655;DHT22;37732;53.106;7.030;2023-08-24T04:32:42;15.10;99.90
51655;DHT22;37732;53.106;7.030;2023-08-24T04:35:10;15.10;99.90
51655;DHT22;37732;53.106;7.030;2023-08-24T04:37:36;15.00;99.90
51655;DHT22;37732;53.106;7.030;2023-08-24T04:40:06;15.10;99.90
51655;DHT22;37732;53.106;7.030;2023-08-24T04:42:42;15.10;99.90
51655;DHT22;37732;53.106;7.030;2023-08-24T04:45:09;15.10;99.90
51655;DHT22;37732;53.106;7.030;2023-08-24T04:47:35;15.10;99.90
51655;DHT22;37732;53.106;7.030;2023-08-24T04:50:03;15.10;99.90
51655;DHT22;37732;53.106;7.030;2023-08-24T04:52:31;15.10;99.90
51655;DHT22;37732;53.106;7.030;2023-08-24T04:54:57;15.20;99.90
51655;DHT22;37732;53.106;7.030;2023-08-24T04:57:24;15.20;99.90
51655;DHT22;37732;53.106;7.030;2023-08-24T04:59:50;15.20;99.90
51655;DHT22;37732;53.106;7.030;2023-08-24T05:02:16;15.20;99.90
51655;DHT22;37732;53.106;7.030;2023-08-24T05:04:42;15.30;99.90
51655;DHT22;37732;53.106;7.030;2023-08-24T05:07:08;15.30;99.90
51655;DHT22;37732;53.106;7.030;2023-08-24T05:09:34;15.30;99.90
51655;DHT22;37732;53.106;7.030;2023-08-24T05:12:00;15.30;99.90
51655;DHT22;37732;53.106;7.030;2023-08-24T05:14:26;15.30;99.90
51655;DHT22;37732;53.106;7.030;2023-08-24T05:16:52;15.30;99.90
51655;DHT22;37732;53.106;7.030;2023-08-24T05:19:18;15.30;99.90
51655;DHT22;37732;53.106;7.030;2023-08-24T05:21:44;15.30;99.90
51655;DHT22;37732;53.106;7.030;2023-08-24T05:24:13;15.40;99.90
51655;DHT22;37732;53.106;7.030;2023-08-24T05:26:39;15.40;99.90
51655;DHT22;37732;53.106;7.030;2023-08-24T05:29:06;15.40;99.90
51655;DHT22;37732;53.106;7.030;2023-08-24T05:31:34;15.40;99.90
51655;DHT22;37732;53.106;7.030;2023-08-24T05:34:03;15.50;99.90
51655;DHT22;37732;53.106;7.030;2023-08-24T05:36:28;15.50;99.90
51655;DHT22;37732;53.106;7.030;2023-08-24T05:38:54;15.60;99.90
51655;DHT22;37732;53.106;7.030;2023-08-24T05:41:27;15.60;99.90
51655;DHT22;37732;53.106;7.030;2023-08-24T05:43:53;15.70;99.90
51655;DHT22;37732;53.106;7.030;2023-08-24T05:46:19;15.70;99.90
51655;DHT22;37732;53.106;7.030;2023-08-24T05:48:45;15.80;99.90
51655;DHT22;37732;53.106;7.030;2023-08-24T05:51:11;15.80;99.90
51655;DHT22;37732;53.106;7.030;2023-08-24T05:53:40;15.90;99.90
51655;DHT22;37732;53.106;7.030;2023-08-24T05:56:06;15.90;99.90
51655;DHT22;37732;53.106;7.030;2023-08-24T05:58:35;15.90;99.90
51655;DHT22;37732;53.106;7.030;2023-08-24T06:01:01;15.90;99.90
51655;DHT22;37732;53.106;7.030;2023-08-24T06:03:27;16.00;99.90
51655;DHT22;37732;53.106;7.030;2023-08-24T06:06:02;16.00;99.90
51655;DHT22;37732;53.106;7.030;2023-08-24T06:08:34;16.10;99.90
51655;DHT22;37732;53.106;7.030;2023-08-24T06:11:01;16.20;99.90
51655;DHT22;37732;53.106;7.030;2023-08-24T06:13:27;16.30;99.90
51655;DHT22;37732;53.106;7.030;2023-08-24T06:15:54;16.40;99.90
51655;DHT22;37732;53.106;7.030;2023-08-24T06:18:23;16.60;99.90
51655;DHT22;37732;53.106;7.030;2023-08-24T06:20:49;16.70;99.90
51655;DHT22;37732;53.106;7.030;2023-08-24T06:23:19;16.90;99.90
51655;DHT22;37732;53.106;7.030;2023-08-24T06:25:45;17.10;99.90
51655;DHT22;37732;53.106;7.030;2023-08-24T06:28:13;17.30;99.90
51655;DHT22;37732;53.106;7.030;2023-08-24T06:30:42;17.40;99.90
51655;DHT22;37732;53.106;7.030;2023-08-24T06:33:12;17.60;99.90
51655;DHT22;37732;53.106;7.030;2023-08-24T06:35:40;17.80;99.90
51655;DHT22;37732;53.106;7.030;2023-08-24T06:38:06;18.00;99.90
51655;DHT22;37732;53.106;7.030;2023-08-24T06:40:33;18.10;99.90
51655;DHT22;37732;53.106;7.030;2023-08-24T06:42:59;18.20;99.90
51655;DHT22;37732;53.106;7.030;2023-08-24T06:45:28;18.40;99.90
51655;DHT22;37732;53.106;7.030;2023-08-24T06:47:55;18.60;99.90
51655;DHT22;37732;53.106;7.030;2023-08-24T06:50:21;18.80;99.90
51655;DHT22;37732;53.106;7.030;2023-08-24T06:52:47;19.00;99.90
51655;DHT22;37732;53.106;7.030;2023-08-24T06:55:13;19.20;99.90
51655;DHT22;37732;53.106;7.030;2023-08-24T06:57:39;19.40;99.90
51655;DHT22;37732;53.106;7.030;2023-08-24T07:00:05;19.50;99.90
51655;DHT22;37732;53.106;7.030;2023-08-24T07:02:35;19.70;99.90
51655;DHT22;37732;53.106;7.030;2023-08-24T07:05:03;19.80;99.90
51655;DHT22;37732;53.106;7.030;2023-08-24T07:07:35;19.90;99.90
51655;DHT22;37732;53.106;7.030;2023-08-24T07:10:01;20.10;99.90
51655;DHT22;37732;53.106;7.030;2023-08-24T07:12:27;20.30;99.90
51655;DHT22;37732;53.106;7.030;2023-08-24T07:14:56;20.40;99.90
51655;DHT22;37732;53.106;7.030;2023-08-24T07:17:22;20.50;99.90
51655;DHT22;37732;53.106;7.030;2023-08-24T07:19:53;20.60;99.90
51655;DHT22;37732;53.106;7.030;2023-08-24T07:22:19;20.60;99.90
51655;DHT22;37732;53.106;7.030;2023-08-24T07:24:48;20.70;99.90
51655;DHT22;37732;53.106;7.030;2023-08-24T07:27:18;20.80;99.90
51655;DHT22;37732;53.106;7.030;2023-08-24T07:29:47;21.00;99.90
51655;DHT22;37732;53.106;7.030;2023-08-24T07:32:13;21.10;99.90
51655;DHT22;37732;53.106;7.030;2023-08-24T07:34:39;21.30;99.90
51655;DHT22;37732;53.106;7.030;2023-08-24T07:37:05;21.40;99.90
51655;DHT22;37732;53.106;7.030;2023-08-24T07:39:34;21.40;99.90
51655;DHT22;37732;53.106;7.030;2023-08-24T07:42:01;21.60;99.90
51655;DHT22;37732;53.106;7.030;2023-08-24T07:44:28;21.60;99.90
51655;DHT22;37732;53.106;7.030;2023-08-24T07:46:54;21.70;99.90
51655;DHT22;37732;53.106;7.030;2023-08-24T07:49:24;21.90;99.90
51655;DHT22;37732;53.106;7.030;2023-08-24T07:51:50;22.00;99.90
51655;DHT22;37732;53.106;7.030;2023-08-24T07:54:17;22.10;99.90
51655;DHT22;37732;53.106;7.030;2023-08-24T07:56:46;22.20;99.90
51655;DHT22;37732;53.106;7.030;2023-08-24T07:59:12;22.30;99.90
51655;DHT22;37732;53.106;7.030;2023-08-24T08:01:38;22.50;99.90
51655;DHT22;37732;53.106;7.030;2023-08-24T08:04:08;22.60;99.90
51655;DHT22;37732;53.106;7.030;2023-08-24T08:06:34;22.70;99.90
51655;DHT22;37732;53.106;7.030;2023-08-24T08:09:00;22.70;99.90
51655;DHT22;37732;53.106;7.030;2023-08-24T08:11:27;22.80;99.90
51655;DHT22;37732;53.106;7.030;2023-08-24T08:13:56;22.90;99.90
51655;DHT22;37732;53.106;7.030;2023-08-24T08:16:22;22.90;99.90
51655;DHT22;37732;53.106;7.030;2023-08-24T08:18:48;22.90;99.90
51655;DHT22;37732;53.106;7.030;2023-08-24T08:21:18;23.10;99.90
51655;DHT22;37732;53.106;7.030;2023-08-24T08:23:44;23.20;99.90
51655;DHT22;37732;53.106;7.030;2023-08-24T08:26:15;23.30;99.90
51655;DHT22;37732;53.106;7.030;2023-08-24T08:28:44;23.30;99.90
51655;DHT22;37732;53.106;7.030;2023-08-24T08:31:13;23.50;99.90
51655;DHT22;37732;53.106;7.030;2023-08-24T08:33:39;23.40;99.90
51655;DHT22;37732;53.106;7.030;2023-08-24T08:36:05;23.40;99.90
51655;DHT22;37732;53.106;7.030;2023-08-24T08:38:31;23.40;99.90
51655;DHT22;37732;53.106;7.030;2023-08-24T08:41:04;23.50;99.90
51655;DHT22;37732;53.106;7.030;2023-08-24T08:43:30;23.50;99.90
51655;DHT22;37732;53.106;7.030;2023-08-24T08:46:00;23.70;99.90
51655;DHT22;37732;53.106;7.030;2023-08-24T08:48:29;23.80;99.90
51655;DHT22;37732;53.106;7.030;2023-08-24T08:50:58;23.90;99.90
51655;DHT22;37732;53.106;7.030;2023-08-24T08:53:37;24.00;99.90
51655;DHT22;37732;53.106;7.030;2023-08-24T08:56:04;24.10;99.90
51655;DHT22;37732;53.106;7.030;2023-08-24T08:58:31;24.10;99.90
51655;DHT22;37732;53.106;7.030;2023-08-24T09:01:03;24.10;99.90
51655;DHT22;37732;53.106;7.030;2023-08-24T09:03:33;24.10;99.90
51655;DHT22;37732;53.106;7.030;2023-08-24T09:06:03;24.20;99.90
51655;DHT22;37732;53.106;7.030;2023-08-24T09:08:32;24.40;99.90
51655;DHT22;37732;53.106;7.030;2023-08-24T09:11:01;24.70;99.90
51655;DHT22;37732;53.106;7.030;2023-08-24T09:13:33;24.90;99.90
51655;DHT22;37732;53.106;7.030;2023-08-24T09:16:07;25.00;99.90
51655;DHT22;37732;53.106;7.030;2023-08-24T09:18:39;25.20;99.90
51655;DHT22;37732;53.106;7.030;2023-08-24T09:21:10;25.10;99.90
51655;DHT22;37732;53.106;7.030;2023-08-24T09:23:44;25.10;99.90
51655;DHT22;37732;53.106;7.030;2023-08-24T09:26:14;25.10;99.90
51655;DHT22;37732;53.106;7.030;2023-08-24T09:28:42;25.10;99.90
51655;DHT22;37732;53.106;7.030;2023-08-24T09:31:12;25.10;99.90
51655;DHT22;37732;53.106;7.030;2023-08-24T09:33:38;25.10;99.90
51655;DHT22;37732;53.106;7.030;2023-08-24T09:36:08;25.10;99.90
51655;DHT22;37732;53.106;7.030;2023-08-24T09:38:34;25.10;99.90
51655;DHT22;37732;53.106;7.030;2023-08-24T09:41:02;25.10;99.90
51655;DHT22;37732;53.106;7.030;2023-08-24T09:43:31;25.10;99.90
51655;DHT22;37732;53.106;7.030;2023-08-24T09:46:03;25.10;99.90
51655;DHT22;37732;53.106;7.030;2023-08-24T09:48:30;25.10;99.90
51655;DHT22;37732;53.106;7.030;2023-08-24T09:51:03;25.10;99.90
51655;DHT22;37732;53.106;7.030;2023-08-24T09:53:37;25.10;99.90
51655;DHT22;37732;53.106;7.030;2023-08-24T09:56:09;25.10;99.90
51655;DHT22;37732;53.106;7.030;2023-08-24T09:58:38;25.10;99.90
51655;DHT22;37732;53.106;7.030;2023-08-24T10:01:05;25.00;99.90
51655;DHT22;37732;53.106;7.030;2023-08-24T10:03:34;25.00;99.90
51655;DHT22;37732;53.106;7.030;2023-08-24T10:06:03;24.90;99.90
51655;DHT22;37732;53.106;7.030;2023-08-24T10:08:34;24.80;99.90
51655;DHT22;37732;53.106;7.030;2023-08-24T10:11:03;24.80;99.90
51655;DHT22;37732;53.106;7.030;2023-08-24T10:13:44;24.70;99.90
51655;DHT22;37732;53.106;7.030;2023-08-24T10:16:16;24.80;99.90
51655;DHT22;37732;53.106;7.030;2023-08-24T10:18:47;24.70;99.90
51655;DHT22;37732;53.106;7.030;2023-08-24T10:21:15;24.70;99.90
51655;DHT22;37732;53.106;7.030;2023-08-24T10:23:43;24.70;99.90
51655;DHT22;37732;53.106;7.030;2023-08-24T10:26:12;24.70;99.90
51655;DHT22;37732;53.106;7.030;2023-08-24T10:28:39;24.70;99.90
51655;DHT22;37732;53.106;7.030;2023-08-24T10:31:09;24.70;99.90
51655;DHT22;37732;53.106;7.030;2023-08-24T10:33:35;24.70;99.90
51655;DHT22;37732;53.106;7.030;2023-08-24T10:36:07;24.70;99.90
51655;DHT22;37732;53.106;7.030;2023-08-24T10:38:39;24.70;99.90
51655;DHT22;37732;53.106;7.030;2023-08-24T10:41:10;24.70;99.90
51655;DHT22;37732;53.106;7.030;2023-08-24T10:43:41;24.70;99.90
51655;DHT22;37732;53.106;7.030;2023-08-24T10:46:15;24.70;99.90
51655;DHT22;37732;53.106;7.030;2023-08-24T10:51:18;24.70;99.90
51655;DHT22;37732;53.106;7.030;2023-08-24T10:53:53;24.60;99.90
51655;DHT22;37732;53.106;7.030;2023-08-24T10:56:21;24.60;99.90
51655;DHT22;37732;53.106;7.030;2023-08-24T10:59:13;24.60;99.90
51655;DHT22;37732;53.106;7.030;2023-08-24T11:04:21;24.60;99.90
51655;DHT22;37732;53.106;7.030;2023-08-24T11:06:56;24.60;99.90
51655;DHT22;37732;53.106;7.030;2023-08-24T11:09:26;24.60;99.90
51655;DHT22;37732;53.106;7.030;2023-08-24T11:14:26;24.70;99.90
51655;DHT22;37732;53.106;7.030;2023-08-24T11:16:58;24.70;99.90
51655;DHT22;37732;53.106;7.030;2023-08-24T11:19:29;24.80;99.90
51655;DHT22;37732;53.106;7.030;2023-08-24T11:21:56;24.90;99.90
51655;DHT22;37732;53.106;7.030;2023-08-24T11:24:26;25.00;99.90
51655;DHT22;37732;53.106;7.030;2023-08-24T11:26:52;25.10;99.90
51655;DHT22;37732;53.106;7.030;2023-08-24T11:29:21;25.20;99.90
51655;DHT22;37732;53.106;7.030;2023-08-24T11:31:51;25.40;99.90
51655;DHT22;37732;53.106;7.030;2023-08-24T11:34:18;25.50;99.90
51655;DHT22;37732;53.106;7.030;2023-08-24T11:36:47;25.50;99.90
51655;DHT22;37732;53.106;7.030;2023-08-24T11:39:22;25.70;99.90
51655;DHT22;37732;53.106;7.030;2023-08-24T11:42:02;25.80;99.90
51655;DHT22;37732;53.106;7.030;2023-08-24T11:44:29;25.90;99.90
51655;DHT22;37732;53.106;7.030;2023-08-24T11:46:58;25.90;99.90
51655;DHT22;37732;53.106;7.030;2023-08-24T11:49:28;25.90;99.90
51655;DHT22;37732;53.106;7.030;2023-08-24T11:51:57;25.90;99.90
51655;DHT22;37732;53.106;7.030;2023-08-24T11:54:24;25.90;99.90
51655;DHT22;37732;53.106;7.030;2023-08-24T11:56:50;25.90;99.90
51655;DHT22;37732;53.106;7.030;2023-08-24T11:59:17;25.90;99.90
51655;DHT22;37732;53.106;7.030;2023-08-24T12:01:48;25.90;99.90
51655;DHT22;37732;53.106;7.030;2023-08-24T12:04:15;26.00;99.90
51655;DHT22;37732;53.106;7.030;2023-08-24T12:06:41;26.10;99.90
51655;DHT22;37732;53.106;7.030;2023-08-24T12:09:08;26.30;99.90
51655;DHT22;37732;53.106;7.030;2023-08-24T12:11:38;26.30;99.90
51655;DHT22;37732;53.106;7.030;2023-08-24T12:14:06;26.40;99.90
51655;DHT22;37732;53.106;7.030;2023-08-24T12:16:38;26.40;99.90
51655;DHT22;37732;53.106;7.030;2023-08-24T12:19:09;26.40;99.90
51655;DHT22;37732;53.106;7.030;2023-08-24T12:21:37;26.40;99.90
51655;DHT22;37732;53.106;7.030;2023-08-24T12:24:06;26.30;99.90
51655;DHT22;37732;53.106;7.030;2023-08-24T12:26:35;26.10;99.90
51655;DHT22;37732;53.106;7.030;2023-08-24T12:29:07;26.10;99.90
51655;DHT22;37732;53.106;7.030;2023-08-24T12:31:34;26.10;99.90
51655;DHT22;37732;53.106;7.030;2023-08-24T12:34:07;26.00;99.90
51655;DHT22;37732;53.106;7.030;2023-08-24T12:36:38;26.00;99.90
51655;DHT22;37732;53.106;7.030;2023-08-24T12:39:10;26.00;99.90
51655;DHT22;37732;53.106;7.030;2023-08-24T12:41:38;25.90;99.90
51655;DHT22;37732;53.106;7.030;2023-08-24T12:44:05;25.80;99.90
51655;DHT22;37732;53.106;7.030;2023-08-24T12:46:34;25.70;99.90
51655;DHT22;37732;53.106;7.030;2023-08-24T12:49:03;25.60;99.90
51655;DHT22;37732;53.106;7.030;2023-08-24T12:51:32;25.70;99.90
51655;DHT22;37732;53.106;7.030;2023-08-24T12:53:59;25.80;99.90
51655;DHT22;37732;53.106;7.030;2023-08-24T12:56:25;25.80;99.90
51655;DHT22;37732;53.106;7.030;2023-08-24T12:58:51;25.80;99.90
51655;DHT22;37732;53.106;7.030;2023-08-24T13:01:20;25.80;99.90
51655;DHT22;37732;53.106;7.030;2023-08-24T13:03:47;25.80;99.90
51655;DHT22;37732;53.106;7.030;2023-08-24T13:06:12;25.80;99.90
51655;DHT22;37732;53.106;7.030;2023-08-24T13:08:38;25.90;99.90
51655;DHT22;37732;53.106;7.030;2023-08-24T13:11:06;25.90;99.90
51655;DHT22;37732;53.106;7.030;2023-08-24T13:13:32;26.00;99.90
51655;DHT22;37732;53.106;7.030;2023-08-24T13:15:58;26.00;99.90
51655;DHT22;37732;53.106;7.030;2023-08-24T13:18:27;26.00;99.90
51655;DHT22;37732;53.106;7.030;2023-08-24T13:20:53;26.10;99.90
51655;DHT22;37732;53.106;7.030;2023-08-24T13:23:22;26.10;99.90
51655;DHT22;37732;53.106;7.030;2023-08-24T13:25:51;26.10;99.90
51655;DHT22;37732;53.106;7.030;2023-08-24T13:28:17;26.20;99.90
51655;DHT22;37732;53.106;7.030;2023-08-24T13:30:45;26.20;99.90
51655;DHT22;37732;53.106;7.030;2023-08-24T13:33:14;26.20;99.90
51655;DHT22;37732;53.106;7.030;2023-08-24T13:35:41;26.20;99.90
51655;DHT22;37732;53.106;7.030;2023-08-24T13:38:09;26.20;99.90
51655;DHT22;37732;53.106;7.030;2023-08-24T13:40:35;26.20;99.90
51655;DHT22;37732;53.106;7.030;2023-08-24T13:43:01;26.20;99.90
51655;DHT22;37732;53.106;7.030;2023-08-24T13:45:26;26.20;99.90
51655;DHT22;37732;53.106;7.030;2023-08-24T13:47:56;26.20;99.90
51655;DHT22;37732;53.106;7.030;2023-08-24T13:50:25;26.10;99.90
51655;DHT22;37732;53.106;7.030;2023-08-24T13:52:55;26.10;99.90
51655;DHT22;37732;53.106;7.030;2023-08-24T13:55:21;26.10;99.90
51655;DHT22;37732;53.106;7.030;2023-08-24T13:57:47;26.00;99.90
51655;DHT22;37732;53.106;7.030;2023-08-24T14:00:16;26.00;99.90
51655;DHT22;37732;53.106;7.030;2023-08-24T14:02:43;26.00;99.90
51655;DHT22;37732;53.106;7.030;2023-08-24T14:05:10;26.00;99.90
51655;DHT22;37732;53.106;7.030;2023-08-24T14:07:41;26.00;99.90
51655;DHT22;37732;53.106;7.030;2023-08-24T14:10:10;26.00;99.90
51655;DHT22;37732;53.106;7.030;2023-08-24T14:12:36;26.00;99.90
51655;DHT22;37732;53.106;7.030;2023-08-24T14:15:04;26.00;99.90
51655;DHT22;37732;53.106;7.030;2023-08-24T14:17:29;26.00;99.90
51655;DHT22;37732;53.106;7.030;2023-08-24T14:19:55;26.00;99.90
51655;DHT22;37732;53.106;7.030;2023-08-24T14:22:21;26.00;99.90
51655;DHT22;37732;53.106;7.030;2023-08-24T14:24:51;26.00;99.90
51655;DHT22;37732;53.106;7.030;2023-08-24T14:27:17;25.90;99.90
51655;DHT22;37732;53.106;7.030;2023-08-24T14:29:46;25.90;99.90
51655;DHT22;37732;53.106;7.030;2023-08-24T14:32:13;25.90;99.90
51655;DHT22;37732;53.106;7.030;2023-08-24T14:34:39;25.80;99.90
51655;DHT22;37732;53.106;7.030;2023-08-24T14:37:09;25.80;99.90
51655;DHT22;37732;53.106;7.030;2023-08-24T14:39:35;25.70;99.90
51655;DHT22;37732;53.106;7.030;2023-08-24T14:42:01;25.60;99.90
51655;DHT22;37732;53.106;7.030;2023-08-24T14:44:28;25.60;99.90
51655;DHT22;37732;53.106;7.030;2023-08-24T14:46:58;25.50;99.90
51655;DHT22;37732;53.106;7.030;2023-08-24T14:49:24;25.50;99.90
51655;DHT22;37732;53.106;7.030;2023-08-24T14:51:51;25.50;99.90
51655;DHT22;37732;53.106;7.030;2023-08-24T14:54:17;25.50;99.90
51655;DHT22;37732;53.106;7.030;2023-08-24T14:56:45;25.50;99.90
51655;DHT22;37732;53.106;7.030;2023-08-24T14:59:12;25.40;99.90
51655;DHT22;37732;53.106;7.030;2023-08-24T15:01:38;25.30;99.90
51655;DHT22;37732;53.106;7.030;2023-08-24T15:04:06;25.20;99.90
51655;DHT22;37732;53.106;7.030;2023-08-24T15:06:34;25.20;99.90
51655;DHT22;37732;53.106;7.030;2023-08-24T15:09:00;25.10;99.90
51655;DHT22;37732;53.106;7.030;2023-08-24T15:11:26;25.00;99.90
51655;DHT22;37732;53.106;7.030;2023-08-24T15:13:56;24.90;99.90
51655;DHT22;37732;53.106;7.030;2023-08-24T15:16:22;24.80;99.90
51655;DHT22;37732;53.106;7.030;2023-08-24T15:18:48;24.70;99.90
51655;DHT22;37732;53.106;7.030;2023-08-24T15:21:14;24.70;99.90
51655;DHT22;37732;53.106;7.030;2023-08-24T15:23:42;24.60;99.90
51655;DHT22;37732;53.106;7.030;2023-08-24T15:26:09;24.70;99.90
51655;DHT22;37732;53.106;7.030;2023-08-24T15:29:08;24.70;99.90
51655;DHT22;37732;53.106;7.030;2023-08-24T15:31:35;24.60;99.90
51655;DHT22;37732;53.106;7.030;2023-08-24T15:34:01;24.60;99.90
51655;DHT22;37732;53.106;7.030;2023-08-24T15:36:27;24.60;99.90
51655;DHT22;37732;53.106;7.030;2023-08-24T15:38:56;24.60;99.90
51655;DHT22;37732;53.106;7.030;2023-08-24T15:41:23;24.60;99.90
51655;DHT22;37732;53.106;7.030;2023-08-24T15:43:49;24.60;99.90
51655;DHT22;37732;53.106;7.030;2023-08-24T15:46:15;24.50;99.90
51655;DHT22;37732;53.106;7.030;2023-08-24T15:48:41;24.40;99.90
51655;DHT22;37732;53.106;7.030;2023-08-24T15:51:08;24.40;99.90
51655;DHT22;37732;53.106;7.030;2023-08-24T15:53:40;24.30;99.90